Eldorado, TX

3:48 PM CST on February 12, 2016 (GMT -0600)
6th ST., Christoval, TX | | Change Station
CLOSE
Current Station
Personal Weather Station
Location: Christoval, TX
Elevation: 2129 ft
Nearby Weather Stations

Elev 2129 ft 31.20 °N, 100.49 °W | Updated 21 seconds ago

Clear
Clear
73.9 °F
Feels Like 76 °F
N
6.0
Wind Variable Wind from ENE
Gusts 7.4 mph

Today
High -- | Low -- °F
--% Chance of Precip.
Yesterday
High -- | Low -- °F
Precip. -- in
Pressure 30.24 in
Visibility 10.0 miles
Clouds Clear
Heat Index 76 °F
Dew Point 39 °F
Humidity 28%
Rainfall 0.00 in
Snow Depth Not available.
7:25 AM 6:26 PM
Waxing Crescent, 24% visible
METAR KSOA 122135Z AUTO 00000KT 10SM CLR 25/M02 A3024 RMK AO2 TSNO
Pressure 30.24 in
Visibility 10.0 miles
Clouds Clear
Heat Index 76 °F
Dew Point 39 °F
Humidity 28%
Rainfall 0.00 in
Snow Depth Not available.
7:25 AM 6:26 PM
Waxing Crescent, 24% visible
METAR KSOA 122135Z AUTO 00000KT 10SM CLR 25/M02 A3024 RMK AO2 TSNO

10-Day Weather Forecast

Almanac

Astronomy

Feb. 12, 2016 Rise Set
Actual Time
Civil Twilight
Nautical Twilight
Astronomical Twilight
Moon
Length of Visible Light
Length of Day
Tomorrow will be .
, % of the Moon is Illuminated

Today's Extremes

State Highs State Lows

Community

WunderPhotos

Upload Photos

1,892,408 photos uploaded!

WunderBlog® & News

Nearby

Air Quality

  Air Quality AQ Index Pollutant
Not available.

Snow Depth

Station Depth Elevation

Earthquake Activity

City Distance Mag. Time & Date
Minimum magnitude displayed is 2.5.

Coastal Water Temperatures

Place Temperature

Stations

Nearby Weather Stations

Station Location Temp. Windchill Dew Point Humidity Wind Precip. Elev Updated Type
                   

Watches & Warnings

There are currently no watches in effect.